Avondale, Maryland
Current Conditions -  °F | °C
As of 11:40 AM on Monday 22 Dec 2014 (Local Time) from KCGS Reporting Station
Overcast Overcast  
Wind Chill: 36°   Ceiling: 4400
Heat Index: 36°   Visibility: 10mi
Dew Point: 30°   Wind: 3mph
Humidity: 81%   Direction: 350°N
Pressure: 30.27"   Gusts: NA
Location:  38.9677°N, 76.9584°W
Report Text: KCGS 221640Z AUTO 35003KT 10SM OVC044 02/M01 A3027 RMK AO1
Loading
Personal Weather Stations






























Interactive Weather Map New forecast layout! Learn more

10-Day Weather Forecast

Advertisements
Track Severe Weather on mobile